sensor_id;sensor_type;location;lat;lon;timestamp;P1;durP1;ratioP1;P2;durP2;ratioP2
46080;SDS011;31821;51.880;-0.518;2022-09-02T00:00:53;2.05;;;1.33;;
46080;SDS011;31821;51.880;-0.518;2022-09-02T00:03:24;2.35;;;1.77;;
46080;SDS011;31821;51.880;-0.518;2022-09-02T00:05:49;2.10;;;1.40;;
46080;SDS011;31821;51.880;-0.518;2022-09-02T00:08:14;1.52;;;1.30;;
46080;SDS011;31821;51.880;-0.518;2022-09-02T00:10:41;2.00;;;1.40;;
46080;SDS011;31821;51.880;-0.518;2022-09-02T00:13:08;2.85;;;1.42;;
46080;SDS011;31821;51.880;-0.518;2022-09-02T00:15:35;3.20;;;1.40;;
46080;SDS011;31821;51.880;-0.518;2022-09-02T00:18:02;2.08;;;1.40;;
46080;SDS011;31821;51.880;-0.518;2022-09-02T00:20:29;2.08;;;1.40;;
46080;SDS011;31821;51.880;-0.518;2022-09-02T00:22:55;2.85;;;1.40;;
46080;SDS011;31821;51.880;-0.518;2022-09-02T00:25:21;2.33;;;1.33;;
46080;SDS011;31821;51.880;-0.518;2022-09-02T00:27:47;2.22;;;1.15;;
46080;SDS011;31821;51.880;-0.518;2022-09-02T00:30:13;2.20;;;1.40;;
46080;SDS011;31821;51.880;-0.518;2022-09-02T00:32:39;2.20;;;1.40;;
46080;SDS011;31821;51.880;-0.518;2022-09-02T00:35:05;2.53;;;1.30;;
46080;SDS011;31821;51.880;-0.518;2022-09-02T00:37:31;2.00;;;1.20;;
46080;SDS011;31821;51.880;-0.518;2022-09-02T00:39:57;1.90;;;1.10;;
46080;SDS011;31821;51.880;-0.518;2022-09-02T00:42:23;2.40;;;1.45;;
46080;SDS011;31821;51.880;-0.518;2022-09-02T00:44:50;1.85;;;1.20;;
46080;SDS011;31821;51.880;-0.518;2022-09-02T00:47:16;2.30;;;1.23;;
46080;SDS011;31821;51.880;-0.518;2022-09-02T00:49:46;3.38;;;1.30;;
46080;SDS011;31821;51.880;-0.518;2022-09-02T00:52:18;2.78;;;1.40;;
46080;SDS011;31821;51.880;-0.518;2022-09-02T00:54:58;2.80;;;1.40;;
46080;SDS011;31821;51.880;-0.518;2022-09-02T00:57:31;2.65;;;1.33;;
46080;SDS011;31821;51.880;-0.518;2022-09-02T01:00:05;4.15;;;1.60;;
46080;SDS011;31821;51.880;-0.518;2022-09-02T01:02:37;2.42;;;1.30;;
46080;SDS011;31821;51.880;-0.518;2022-09-02T01:05:06;2.78;;;1.23;;
46080;SDS011;31821;51.880;-0.518;2022-09-02T01:07:35;3.33;;;1.38;;
46080;SDS011;31821;51.880;-0.518;2022-09-02T01:10:04;1.85;;;1.27;;
46080;SDS011;31821;51.880;-0.518;2022-09-02T01:12:32;2.40;;;1.20;;
46080;SDS011;31821;51.880;-0.518;2022-09-02T01:14:57;2.00;;;1.20;;
46080;SDS011;31821;51.880;-0.518;2022-09-02T01:17:23;2.78;;;1.60;;
46080;SDS011;31821;51.880;-0.518;2022-09-02T01:20:03;3.08;;;1.30;;
46080;SDS011;31821;51.880;-0.518;2022-09-02T01:22:33;2.78;;;1.48;;
46080;SDS011;31821;51.880;-0.518;2022-09-02T01:25:06;2.17;;;1.38;;
46080;SDS011;31821;51.880;-0.518;2022-09-02T01:27:34;1.80;;;1.05;;
46080;SDS011;31821;51.880;-0.518;2022-09-02T01:30:01;1.33;;;1.13;;
46080;SDS011;31821;51.880;-0.518;2022-09-02T01:32:28;1.85;;;1.23;;
46080;SDS011;31821;51.880;-0.518;2022-09-02T01:34:54;2.42;;;1.35;;
46080;SDS011;31821;51.880;-0.518;2022-09-02T01:37:20;2.65;;;1.50;;
46080;SDS011;31821;51.880;-0.518;2022-09-02T01:39:47;2.17;;;1.50;;
46080;SDS011;31821;51.880;-0.518;2022-09-02T01:42:14;3.28;;;1.25;;
46080;SDS011;31821;51.880;-0.518;2022-09-02T01:44:40;1.67;;;1.20;;
46080;SDS011;31821;51.880;-0.518;2022-09-02T01:47:09;2.42;;;1.30;;
46080;SDS011;31821;51.880;-0.518;2022-09-02T01:49:36;2.70;;;1.40;;
46080;SDS011;31821;51.880;-0.518;2022-09-02T01:52:02;1.35;;;1.10;;
46080;SDS011;31821;51.880;-0.518;2022-09-02T01:54:29;1.73;;;1.10;;
46080;SDS011;31821;51.880;-0.518;2022-09-02T01:56:54;2.67;;;1.30;;
46080;SDS011;31821;51.880;-0.518;2022-09-02T01:59:20;2.92;;;1.15;;
46080;SDS011;31821;51.880;-0.518;2022-09-02T02:01:45;3.05;;;1.15;;
46080;SDS011;31821;51.880;-0.518;2022-09-02T02:04:12;1.92;;;1.27;;
46080;SDS011;31821;51.880;-0.518;2022-09-02T02:06:42;2.22;;;1.40;;
46080;SDS011;31821;51.880;-0.518;2022-09-02T02:09:09;1.90;;;1.20;;
46080;SDS011;31821;51.880;-0.518;2022-09-02T02:11:36;2.58;;;1.30;;
46080;SDS011;31821;51.880;-0.518;2022-09-02T02:14:03;2.25;;;1.25;;
46080;SDS011;31821;51.880;-0.518;2022-09-02T02:16:29;2.40;;;1.30;;
46080;SDS011;31821;51.880;-0.518;2022-09-02T02:18:56;2.95;;;1.40;;
46080;SDS011;31821;51.880;-0.518;2022-09-02T02:21:22;2.20;;;1.25;;
46080;SDS011;31821;51.880;-0.518;2022-09-02T02:23:48;2.17;;;1.23;;
46080;SDS011;31821;51.880;-0.518;2022-09-02T02:26:13;1.92;;;1.15;;
46080;SDS011;31821;51.880;-0.518;2022-09-02T02:28:39;2.70;;;1.35;;
46080;SDS011;31821;51.880;-0.518;2022-09-02T02:31:05;3.42;;;1.25;;
46080;SDS011;31821;51.880;-0.518;2022-09-02T02:33:31;2.03;;;1.40;;
46080;SDS011;31821;51.880;-0.518;2022-09-02T02:35:56;1.50;;;1.20;;
46080;SDS011;31821;51.880;-0.518;2022-09-02T02:38:22;1.52;;;1.20;;
46080;SDS011;31821;51.880;-0.518;2022-09-02T02:40:48;1.73;;;1.08;;
46080;SDS011;31821;51.880;-0.518;2022-09-02T02:43:14;1.95;;;1.20;;
46080;SDS011;31821;51.880;-0.518;2022-09-02T02:45:40;1.73;;;1.30;;
46080;SDS011;31821;51.880;-0.518;2022-09-02T02:48:05;2.22;;;1.40;;
46080;SDS011;31821;51.880;-0.518;2022-09-02T02:50:31;2.00;;;1.00;;
46080;SDS011;31821;51.880;-0.518;2022-09-02T02:52:57;2.60;;;1.13;;
46080;SDS011;31821;51.880;-0.518;2022-09-02T02:55:26;1.95;;;1.20;;
46080;SDS011;31821;51.880;-0.518;2022-09-02T02:57:52;3.92;;;1.30;;
46080;SDS011;31821;51.880;-0.518;2022-09-02T03:00:19;2.85;;;1.33;;
46080;SDS011;31821;51.880;-0.518;2022-09-02T03:02:47;2.13;;;1.17;;
46080;SDS011;31821;51.880;-0.518;2022-09-02T03:05:13;2.15;;;1.20;;
46080;SDS011;31821;51.880;-0.518;2022-09-02T03:07:39;1.80;;;1.08;;
46080;SDS011;31821;51.880;-0.518;2022-09-02T03:10:06;1.95;;;1.20;;
46080;SDS011;31821;51.880;-0.518;2022-09-02T03:12:33;4.03;;;1.48;;
46080;SDS011;31821;51.880;-0.518;2022-09-02T03:15:00;1.88;;;1.25;;
46080;SDS011;31821;51.880;-0.518;2022-09-02T03:17:27;1.65;;;1.05;;
46080;SDS011;31821;51.880;-0.518;2022-09-02T03:19:53;1.63;;;1.10;;
46080;SDS011;31821;51.880;-0.518;2022-09-02T03:22:19;2.50;;;1.45;;
46080;SDS011;31821;51.880;-0.518;2022-09-02T03:24:44;2.28;;;1.40;;
46080;SDS011;31821;51.880;-0.518;2022-09-02T03:27:10;3.22;;;1.30;;
46080;SDS011;31821;51.880;-0.518;2022-09-02T03:29:36;2.00;;;1.30;;
46080;SDS011;31821;51.880;-0.518;2022-09-02T03:32:02;2.15;;;1.25;;
46080;SDS011;31821;51.880;-0.518;2022-09-02T03:34:29;2.63;;;1.40;;
46080;SDS011;31821;51.880;-0.518;2022-09-02T03:36:56;2.05;;;1.23;;
46080;SDS011;31821;51.880;-0.518;2022-09-02T03:39:21;2.33;;;1.40;;
46080;SDS011;31821;51.880;-0.518;2022-09-02T03:41:47;2.65;;;1.30;;
46080;SDS011;31821;51.880;-0.518;2022-09-02T03:44:14;2.15;;;1.30;;
46080;SDS011;31821;51.880;-0.518;2022-09-02T03:46:41;1.65;;;1.00;;
46080;SDS011;31821;51.880;-0.518;2022-09-02T03:49:06;2.47;;;1.40;;
46080;SDS011;31821;51.880;-0.518;2022-09-02T03:51:32;1.95;;;1.35;;
46080;SDS011;31821;51.880;-0.518;2022-09-02T03:53:58;2.72;;;1.23;;
46080;SDS011;31821;51.880;-0.518;2022-09-02T03:56:24;2.33;;;1.20;;
46080;SDS011;31821;51.880;-0.518;2022-09-02T03:58:51;1.90;;;1.15;;
46080;SDS011;31821;51.880;-0.518;2022-09-02T04:01:18;1.65;;;1.20;;
46080;SDS011;31821;51.880;-0.518;2022-09-02T04:03:47;1.83;;;1.10;;
46080;SDS011;31821;51.880;-0.518;2022-09-02T04:06:15;1.83;;;1.20;;
46080;SDS011;31821;51.880;-0.518;2022-09-02T04:08:42;2.35;;;1.20;;
46080;SDS011;31821;51.880;-0.518;2022-09-02T04:11:10;1.67;;;1.30;;
46080;SDS011;31821;51.880;-0.518;2022-09-02T04:13:39;2.30;;;1.20;;
46080;SDS011;31821;51.880;-0.518;2022-09-02T04:16:12;2.30;;;1.30;;
46080;SDS011;31821;51.880;-0.518;2022-09-02T04:18:39;2.22;;;1.20;;
46080;SDS011;31821;51.880;-0.518;2022-09-02T04:21:05;1.80;;;1.10;;
46080;SDS011;31821;51.880;-0.518;2022-09-02T04:23:31;1.90;;;1.20;;
46080;SDS011;31821;51.880;-0.518;2022-09-02T04:25:57;2.75;;;1.13;;
46080;SDS011;31821;51.880;-0.518;2022-09-02T04:28:27;2.65;;;1.30;;
46080;SDS011;31821;51.880;-0.518;2022-09-02T04:30:52;1.98;;;1.17;;
46080;SDS011;31821;51.880;-0.518;2022-09-02T04:33:18;2.20;;;1.20;;
46080;SDS011;31821;51.880;-0.518;2022-09-02T04:35:44;1.92;;;1.10;;
46080;SDS011;31821;51.880;-0.518;2022-09-02T04:38:13;2.08;;;1.30;;
46080;SDS011;31821;51.880;-0.518;2022-09-02T04:40:40;1.92;;;1.27;;
46080;SDS011;31821;51.880;-0.518;2022-09-02T04:43:08;1.80;;;1.00;;
46080;SDS011;31821;51.880;-0.518;2022-09-02T04:45:34;2.22;;;1.25;;
46080;SDS011;31821;51.880;-0.518;2022-09-02T04:48:04;2.03;;;1.10;;
46080;SDS011;31821;51.880;-0.518;2022-09-02T04:50:29;1.80;;;1.00;;
46080;SDS011;31821;51.880;-0.518;2022-09-02T04:52:55;1.85;;;1.02;;
46080;SDS011;31821;51.880;-0.518;2022-09-02T04:55:20;1.95;;;1.10;;
46080;SDS011;31821;51.880;-0.518;2022-09-02T04:57:46;1.80;;;1.15;;
46080;SDS011;31821;51.880;-0.518;2022-09-02T05:00:12;3.05;;;1.38;;
46080;SDS011;31821;51.880;-0.518;2022-09-02T05:02:37;2.60;;;1.20;;
46080;SDS011;31821;51.880;-0.518;2022-09-02T05:05:04;2.97;;;1.27;;
46080;SDS011;31821;51.880;-0.518;2022-09-02T05:07:30;1.88;;;1.20;;
46080;SDS011;31821;51.880;-0.518;2022-09-02T05:09:59;2.42;;;1.20;;
46080;SDS011;31821;51.880;-0.518;2022-09-02T05:12:24;2.03;;;1.10;;
46080;SDS011;31821;51.880;-0.518;2022-09-02T05:14:53;1.50;;;1.00;;
46080;SDS011;31821;51.880;-0.518;2022-09-02T05:17:21;2.75;;;1.10;;
46080;SDS011;31821;51.880;-0.518;2022-09-02T05:19:47;4.05;;;1.15;;
46080;SDS011;31821;51.880;-0.518;2022-09-02T05:22:13;1.25;;;0.90;;
46080;SDS011;31821;51.880;-0.518;2022-09-02T05:24:39;1.98;;;1.20;;
46080;SDS011;31821;51.880;-0.518;2022-09-02T05:27:07;2.75;;;1.10;;
46080;SDS011;31821;51.880;-0.518;2022-09-02T05:29:33;1.92;;;1.17;;
46080;SDS011;31821;51.880;-0.518;2022-09-02T05:31:59;1.83;;;1.10;;
46080;SDS011;31821;51.880;-0.518;2022-09-02T05:34:25;3.35;;;1.20;;
46080;SDS011;31821;51.880;-0.518;2022-09-02T05:36:50;3.03;;;1.20;;
46080;SDS011;31821;51.880;-0.518;2022-09-02T05:39:16;3.00;;;1.20;;
46080;SDS011;31821;51.880;-0.518;2022-09-02T05:41:41;2.53;;;1.20;;
46080;SDS011;31821;51.880;-0.518;2022-09-02T05:44:07;2.95;;;1.13;;
46080;SDS011;31821;51.880;-0.518;2022-09-02T05:46:33;1.98;;;1.10;;
46080;SDS011;31821;51.880;-0.518;2022-09-02T05:49:00;2.70;;;1.10;;
46080;SDS011;31821;51.880;-0.518;2022-09-02T05:54:18;1.92;;;1.10;;
46080;SDS011;31821;51.880;-0.518;2022-09-02T05:56:47;2.35;;;1.17;;
46080;SDS011;31821;51.880;-0.518;2022-09-02T05:59:14;2.42;;;1.20;;
46080;SDS011;31821;51.880;-0.518;2022-09-02T06:01:40;2.25;;;1.40;;
46080;SDS011;31821;51.880;-0.518;2022-09-02T06:04:06;3.42;;;1.20;;
46080;SDS011;31821;51.880;-0.518;2022-09-02T06:06:32;2.75;;;0.95;;
46080;SDS011;31821;51.880;-0.518;2022-09-02T06:08:59;1.95;;;1.20;;
46080;SDS011;31821;51.880;-0.518;2022-09-02T06:11:25;2.92;;;1.15;;
46080;SDS011;31821;51.880;-0.518;2022-09-02T06:13:52;2.13;;;1.20;;
46080;SDS011;31821;51.880;-0.518;2022-09-02T06:16:20;2.25;;;1.10;;
46080;SDS011;31821;51.880;-0.518;2022-09-02T06:18:47;1.98;;;1.15;;
46080;SDS011;31821;51.880;-0.518;2022-09-02T06:21:14;2.28;;;1.20;;
46080;SDS011;31821;51.880;-0.518;2022-09-02T06:23:40;2.25;;;1.20;;
46080;SDS011;31821;51.880;-0.518;2022-09-02T06:26:07;3.40;;;1.20;;
46080;SDS011;31821;51.880;-0.518;2022-09-02T06:28:34;3.20;;;1.17;;
46080;SDS011;31821;51.880;-0.518;2022-09-02T06:31:10;1.88;;;1.15;;
46080;SDS011;31821;51.880;-0.518;2022-09-02T06:33:41;2.03;;;1.10;;
46080;SDS011;31821;51.880;-0.518;2022-09-02T06:36:09;2.85;;;1.52;;
46080;SDS011;31821;51.880;-0.518;2022-09-02T06:38:42;1.67;;;1.00;;
46080;SDS011;31821;51.880;-0.518;2022-09-02T06:41:15;1.83;;;1.05;;
46080;SDS011;31821;51.880;-0.518;2022-09-02T06:43:46;2.15;;;1.02;;
46080;SDS011;31821;51.880;-0.518;2022-09-02T06:46:16;1.45;;;0.98;;
46080;SDS011;31821;51.880;-0.518;2022-09-02T06:48:47;1.73;;;1.10;;
46080;SDS011;31821;51.880;-0.518;2022-09-02T06:51:15;2.10;;;1.27;;
46080;SDS011;31821;51.880;-0.518;2022-09-02T06:53:45;2.15;;;1.20;;
46080;SDS011;31821;51.880;-0.518;2022-09-02T06:56:10;2.38;;;1.13;;
46080;SDS011;31821;51.880;-0.518;2022-09-02T06:58:36;1.80;;;1.10;;
46080;SDS011;31821;51.880;-0.518;2022-09-02T07:01:02;2.42;;;1.20;;
46080;SDS011;31821;51.880;-0.518;2022-09-02T07:03:28;1.98;;;1.20;;
46080;SDS011;31821;51.880;-0.518;2022-09-02T07:06:12;2.67;;;1.20;;
46080;SDS011;31821;51.880;-0.518;2022-09-02T07:08:38;2.42;;;1.10;;
46080;SDS011;31821;51.880;-0.518;2022-09-02T07:11:06;2.25;;;1.10;;
46080;SDS011;31821;51.880;-0.518;2022-09-02T07:13:38;3.08;;;1.20;;
46080;SDS011;31821;51.880;-0.518;2022-09-02T07:16:04;2.17;;;1.10;;
46080;SDS011;31821;51.880;-0.518;2022-09-02T07:18:31;2.17;;;1.13;;
46080;SDS011;31821;51.880;-0.518;2022-09-02T07:20:58;2.85;;;1.17;;
46080;SDS011;31821;51.880;-0.518;2022-09-02T07:23:24;1.50;;;1.05;;
46080;SDS011;31821;51.880;-0.518;2022-09-02T07:25:50;1.77;;;1.08;;
46080;SDS011;31821;51.880;-0.518;2022-09-02T07:28:15;1.65;;;0.93;;
46080;SDS011;31821;51.880;-0.518;2022-09-02T07:30:41;1.98;;;1.30;;
46080;SDS011;31821;51.880;-0.518;2022-09-02T07:33:08;1.77;;;1.10;;
46080;SDS011;31821;51.880;-0.518;2022-09-02T07:35:41;1.90;;;1.15;;
46080;SDS011;31821;51.880;-0.518;2022-09-02T07:38:07;1.38;;;0.98;;
46080;SDS011;31821;51.880;-0.518;2022-09-02T07:40:34;1.83;;;1.00;;
46080;SDS011;31821;51.880;-0.518;2022-09-02T07:43:01;2.38;;;1.25;;
46080;SDS011;31821;51.880;-0.518;2022-09-02T07:45:29;1.30;;;1.00;;
46080;SDS011;31821;51.880;-0.518;2022-09-02T07:47:55;1.98;;;1.00;;
46080;SDS011;31821;51.880;-0.518;2022-09-02T07:50:20;1.73;;;1.08;;
46080;SDS011;31821;51.880;-0.518;2022-09-02T07:52:46;1.95;;;1.20;;
46080;SDS011;31821;51.880;-0.518;2022-09-02T07:55:14;1.20;;;1.00;;
46080;SDS011;31821;51.880;-0.518;2022-09-02T07:57:40;1.38;;;0.90;;
46080;SDS011;31821;51.880;-0.518;2022-09-02T08:00:06;1.67;;;1.00;;
46080;SDS011;31821;51.880;-0.518;2022-09-02T08:02:32;1.73;;;1.08;;
46080;SDS011;31821;51.880;-0.518;2022-09-02T08:04:58;1.50;;;1.10;;
46080;SDS011;31821;51.880;-0.518;2022-09-02T08:07:24;1.98;;;0.90;;
46080;SDS011;31821;51.880;-0.518;2022-09-02T08:09:50;1.45;;;0.90;;
46080;SDS011;31821;51.880;-0.518;2022-09-02T08:12:16;1.67;;;1.10;;
46080;SDS011;31821;51.880;-0.518;2022-09-02T08:14:42;1.85;;;1.00;;
46080;SDS011;31821;51.880;-0.518;2022-09-02T08:17:07;1.67;;;1.00;;
46080;SDS011;31821;51.880;-0.518;2022-09-02T08:19:33;2.20;;;1.38;;
46080;SDS011;31821;51.880;-0.518;2022-09-02T08:22:04;1.95;;;1.20;;
46080;SDS011;31821;51.880;-0.518;2022-09-02T08:24:30;1.38;;;1.00;;
46080;SDS011;31821;51.880;-0.518;2022-09-02T08:26:57;1.50;;;1.10;;
46080;SDS011;31821;51.880;-0.518;2022-09-02T08:29:23;3.92;;;1.40;;
46080;SDS011;31821;51.880;-0.518;2022-09-02T08:31:48;3.90;;;1.30;;
46080;SDS011;31821;51.880;-0.518;2022-09-02T08:34:14;4.78;;;1.80;;
46080;SDS011;31821;51.880;-0.518;2022-09-02T08:36:40;4.82;;;1.67;;
46080;SDS011;31821;51.880;-0.518;2022-09-02T08:39:08;4.55;;;1.52;;
46080;SDS011;31821;51.880;-0.518;2022-09-02T08:44:11;3.42;;;1.30;;
46080;SDS011;31821;51.880;-0.518;2022-09-02T08:46:44;2.85;;;1.20;;
46080;SDS011;31821;51.880;-0.518;2022-09-02T08:49:22;3.03;;;1.23;;
46080;SDS011;31821;51.880;-0.518;2022-09-02T08:51:56;4.47;;;1.33;;
46080;SDS011;31821;51.880;-0.518;2022-09-02T08:57:15;3.15;;;1.00;;
46080;SDS011;31821;51.880;-0.518;2022-09-02T08:59:41;4.20;;;1.33;;
46080;SDS011;31821;51.880;-0.518;2022-09-02T09:02:20;4.55;;;1.52;;
46080;SDS011;31821;51.880;-0.518;2022-09-02T09:13:14;7.63;;;2.08;;
46080;SDS011;31821;51.880;-0.518;2022-09-02T09:15:58;4.15;;;1.40;;
46080;SDS011;31821;51.880;-0.518;2022-09-02T09:18:30;5.95;;;1.75;;
46080;SDS011;31821;51.880;-0.518;2022-09-02T09:21:17;6.43;;;2.10;;
46080;SDS011;31821;51.880;-0.518;2022-09-02T09:23:43;4.93;;;1.60;;
46080;SDS011;31821;51.880;-0.518;2022-09-02T09:26:16;5.53;;;2.25;;
46080;SDS011;31821;51.880;-0.518;2022-09-02T09:28:47;4.63;;;1.63;;
46080;SDS011;31821;51.880;-0.518;2022-09-02T09:31:15;5.03;;;1.50;;
46080;SDS011;31821;51.880;-0.518;2022-09-02T09:39:17;5.35;;;1.45;;
46080;SDS011;31821;51.880;-0.518;2022-09-02T09:41:44;2.88;;;1.20;;
46080;SDS011;31821;51.880;-0.518;2022-09-02T09:44:27;4.60;;;1.65;;
46080;SDS011;31821;51.880;-0.518;2022-09-02T09:47:01;4.25;;;1.70;;
46080;SDS011;31821;51.880;-0.518;2022-09-02T09:49:28;4.78;;;1.80;;
46080;SDS011;31821;51.880;-0.518;2022-09-02T09:51:57;4.78;;;1.50;;
46080;SDS011;31821;51.880;-0.518;2022-09-02T09:54:24;5.10;;;1.83;;
46080;SDS011;31821;51.880;-0.518;2022-09-02T09:56:51;7.90;;;2.10;;
46080;SDS011;31821;51.880;-0.518;2022-09-02T09:59:36;2.97;;;1.70;;
46080;SDS011;31821;51.880;-0.518;2022-09-02T10:02:17;3.40;;;1.30;;
46080;SDS011;31821;51.880;-0.518;2022-09-02T10:04:51;4.82;;;1.60;;
46080;SDS011;31821;51.880;-0.518;2022-09-02T10:07:37;3.55;;;1.60;;
46080;SDS011;31821;51.880;-0.518;2022-09-02T10:10:11;4.68;;;1.58;;
46080;SDS011;31821;51.880;-0.518;2022-09-02T10:12:41;3.70;;;1.30;;
46080;SDS011;31821;51.880;-0.518;2022-09-02T10:15:07;4.03;;;1.40;;
46080;SDS011;31821;51.880;-0.518;2022-09-02T10:17:39;3.20;;;1.40;;
46080;SDS011;31821;51.880;-0.518;2022-09-02T10:28:42;9.15;;;2.50;;
46080;SDS011;31821;51.880;-0.518;2022-09-02T10:31:22;4.22;;;1.50;;
46080;SDS011;31821;51.880;-0.518;2022-09-02T10:37:19;3.28;;;1.23;;
46080;SDS011;31821;51.880;-0.518;2022-09-02T10:42:15;4.40;;;1.55;;
46080;SDS011;31821;51.880;-0.518;2022-09-02T10:44:54;4.68;;;1.45;;
46080;SDS011;31821;51.880;-0.518;2022-09-02T10:47:41;3.67;;;1.30;;
46080;SDS011;31821;51.880;-0.518;2022-09-02T10:50:19;5.10;;;2.13;;
46080;SDS011;31821;51.880;-0.518;2022-09-02T11:00:53;7.40;;;1.90;;
46080;SDS011;31821;51.880;-0.518;2022-09-02T11:03:26;3.80;;;1.95;;
46080;SDS011;31821;51.880;-0.518;2022-09-02T11:06:06;3.95;;;1.65;;
46080;SDS011;31821;51.880;-0.518;2022-09-02T11:09:23;4.85;;;1.90;;
46080;SDS011;31821;51.880;-0.518;2022-09-02T11:11:38;4.50;;;1.30;;
46080;SDS011;31821;51.880;-0.518;2022-09-02T11:14:16;4.20;;;1.52;;
46080;SDS011;31821;51.880;-0.518;2022-09-02T11:17:03;3.85;;;1.42;;
46080;SDS011;31821;51.880;-0.518;2022-09-02T11:19:38;5.38;;;1.65;;
46080;SDS011;31821;51.880;-0.518;2022-09-02T11:30:04;4.63;;;1.50;;
46080;SDS011;31821;51.880;-0.518;2022-09-02T11:35:21;5.43;;;1.67;;
46080;SDS011;31821;51.880;-0.518;2022-09-02T11:37:56;3.65;;;1.80;;
46080;SDS011;31821;51.880;-0.518;2022-09-02T11:43:27;5.70;;;2.00;;
46080;SDS011;31821;51.880;-0.518;2022-09-02T11:54:12;5.73;;;1.90;;
46080;SDS011;31821;51.880;-0.518;2022-09-02T11:56:44;5.68;;;1.50;;
46080;SDS011;31821;51.880;-0.518;2022-09-02T12:00:00;4.88;;;1.70;;
46080;SDS011;31821;51.880;-0.518;2022-09-02T12:02:29;3.47;;;1.50;;
46080;SDS011;31821;51.880;-0.518;2022-09-02T12:08:02;4.38;;;1.65;;
46080;SDS011;31821;51.880;-0.518;2022-09-02T12:13:10;4.82;;;1.70;;
46080;SDS011;31821;51.880;-0.518;2022-09-02T12:21:20;2.40;;;1.50;;
46080;SDS011;31821;51.880;-0.518;2022-09-02T12:26:21;3.70;;;1.50;;
46080;SDS011;31821;51.880;-0.518;2022-09-02T12:28:49;2.50;;;1.30;;
46080;SDS011;31821;51.880;-0.518;2022-09-02T12:36:56;5.53;;;2.15;;
46080;SDS011;31821;51.880;-0.518;2022-09-02T12:47:22;3.85;;;1.90;;
46080;SDS011;31821;51.880;-0.518;2022-09-02T12:50:01;3.72;;;1.52;;
46080;SDS011;31821;51.880;-0.518;2022-09-02T12:57:48;5.65;;;1.70;;
46080;SDS011;31821;51.880;-0.518;2022-09-02T13:00:18;3.00;;;1.52;;
46080;SDS011;31821;51.880;-0.518;2022-09-02T13:20:08;7.10;;;2.20;;
46080;SDS011;31821;51.880;-0.518;2022-09-02T13:33:09;5.85;;;1.90;;
46080;SDS011;31821;51.880;-0.518;2022-09-02T13:35:37;4.20;;;1.63;;
46080;SDS011;31821;51.880;-0.518;2022-09-02T13:38:03;5.90;;;2.28;;
46080;SDS011;31821;51.880;-0.518;2022-09-02T13:40:36;3.28;;;1.80;;
46080;SDS011;31821;51.880;-0.518;2022-09-02T13:43:04;5.75;;;2.28;;
46080;SDS011;31821;51.880;-0.518;2022-09-02T13:45:42;4.20;;;1.67;;
46080;SDS011;31821;51.880;-0.518;2022-09-02T13:50:59;5.68;;;2.30;;
46080;SDS011;31821;51.880;-0.518;2022-09-02T13:53:34;3.38;;;1.55;;
46080;SDS011;31821;51.880;-0.518;2022-09-02T13:56:00;4.50;;;1.98;;
46080;SDS011;31821;51.880;-0.518;2022-09-02T14:01:15;4.90;;;1.67;;
46080;SDS011;31821;51.880;-0.518;2022-09-02T14:03:45;2.33;;;1.40;;
46080;SDS011;31821;51.880;-0.518;2022-09-02T14:06:13;5.00;;;1.80;;
46080;SDS011;31821;51.880;-0.518;2022-09-02T14:08:40;4.30;;;1.80;;
46080;SDS011;31821;51.880;-0.518;2022-09-02T14:11:06;3.88;;;1.60;;
46080;SDS011;31821;51.880;-0.518;2022-09-02T14:13:32;4.82;;;1.90;;
46080;SDS011;31821;51.880;-0.518;2022-09-02T14:19:07;2.20;;;1.40;;
46080;SDS011;31821;51.880;-0.518;2022-09-02T14:24:19;4.38;;;1.90;;
46080;SDS011;31821;51.880;-0.518;2022-09-02T14:26:55;3.17;;;1.80;;
46080;SDS011;31821;51.880;-0.518;2022-09-02T14:29:23;2.65;;;1.70;;
46080;SDS011;31821;51.880;-0.518;2022-09-02T14:32:05;3.85;;;1.83;;
46080;SDS011;31821;51.880;-0.518;2022-09-02T14:34:37;2.47;;;1.58;;
46080;SDS011;31821;51.880;-0.518;2022-09-02T14:40:11;6.07;;;2.53;;
46080;SDS011;31821;51.880;-0.518;2022-09-02T14:42:44;3.00;;;1.70;;
46080;SDS011;31821;51.880;-0.518;2022-09-02T14:45:11;6.47;;;2.28;;
46080;SDS011;31821;51.880;-0.518;2022-09-02T14:47:38;3.72;;;1.95;;
46080;SDS011;31821;51.880;-0.518;2022-09-02T14:50:08;4.00;;;1.80;;
46080;SDS011;31821;51.880;-0.518;2022-09-02T14:52:36;5.03;;;1.73;;
46080;SDS011;31821;51.880;-0.518;2022-09-02T14:55:02;3.63;;;1.65;;
46080;SDS011;31821;51.880;-0.518;2022-09-02T14:57:34;3.10;;;1.50;;
46080;SDS011;31821;51.880;-0.518;2022-09-02T15:00:10;4.43;;;1.58;;
46080;SDS011;31821;51.880;-0.518;2022-09-02T15:02:39;3.95;;;1.92;;
46080;SDS011;31821;51.880;-0.518;2022-09-02T15:05:08;6.38;;;2.10;;
46080;SDS011;31821;51.880;-0.518;2022-09-02T15:07:35;5.43;;;1.80;;
46080;SDS011;31821;51.880;-0.518;2022-09-02T15:10:01;6.57;;;1.80;;
46080;SDS011;31821;51.880;-0.518;2022-09-02T15:12:29;4.25;;;1.80;;
46080;SDS011;31821;51.880;-0.518;2022-09-02T15:14:58;3.92;;;1.90;;
46080;SDS011;31821;51.880;-0.518;2022-09-02T15:17:24;3.83;;;1.50;;
46080;SDS011;31821;51.880;-0.518;2022-09-02T15:19:50;3.80;;;2.00;;
46080;SDS011;31821;51.880;-0.518;2022-09-02T15:22:16;3.55;;;2.00;;
46080;SDS011;31821;51.880;-0.518;2022-09-02T15:24:43;3.88;;;1.70;;
46080;SDS011;31821;51.880;-0.518;2022-09-02T15:27:09;5.85;;;2.40;;
46080;SDS011;31821;51.880;-0.518;2022-09-02T15:29:36;3.15;;;1.77;;
46080;SDS011;31821;51.880;-0.518;2022-09-02T15:32:01;2.88;;;1.45;;
46080;SDS011;31821;51.880;-0.518;2022-09-02T15:34:28;4.45;;;2.00;;
46080;SDS011;31821;51.880;-0.518;2022-09-02T15:36:54;3.40;;;2.28;;
46080;SDS011;31821;51.880;-0.518;2022-09-02T15:39:21;4.05;;;1.80;;
46080;SDS011;31821;51.880;-0.518;2022-09-02T15:41:47;2.33;;;1.77;;
46080;SDS011;31821;51.880;-0.518;2022-09-02T15:44:14;6.68;;;2.08;;
46080;SDS011;31821;51.880;-0.518;2022-09-02T15:46:41;3.30;;;1.70;;
46080;SDS011;31821;51.880;-0.518;2022-09-02T15:49:08;4.40;;;2.15;;
46080;SDS011;31821;51.880;-0.518;2022-09-02T15:51:36;2.50;;;1.73;;
46080;SDS011;31821;51.880;-0.518;2022-09-02T15:54:08;2.67;;;1.80;;
46080;SDS011;31821;51.880;-0.518;2022-09-02T15:56:36;2.78;;;1.73;;
46080;SDS011;31821;51.880;-0.518;2022-09-02T15:59:06;2.13;;;1.50;;
46080;SDS011;31821;51.880;-0.518;2022-09-02T16:01:33;5.43;;;2.10;;
46080;SDS011;31821;51.880;-0.518;2022-09-02T16:04:00;4.32;;;2.20;;
46080;SDS011;31821;51.880;-0.518;2022-09-02T16:06:27;3.85;;;2.00;;
46080;SDS011;31821;51.880;-0.518;2022-09-02T16:08:53;3.67;;;1.75;;
46080;SDS011;31821;51.880;-0.518;2022-09-02T16:11:19;2.63;;;2.10;;
46080;SDS011;31821;51.880;-0.518;2022-09-02T16:13:45;3.55;;;2.25;;
46080;SDS011;31821;51.880;-0.518;2022-09-02T16:16:12;4.10;;;2.15;;
46080;SDS011;31821;51.880;-0.518;2022-09-02T16:18:40;4.15;;;2.13;;
46080;SDS011;31821;51.880;-0.518;2022-09-02T16:21:07;2.90;;;2.00;;
46080;SDS011;31821;51.880;-0.518;2022-09-02T16:23:34;3.60;;;1.98;;
46080;SDS011;31821;51.880;-0.518;2022-09-02T16:28:49;1.90;;;1.55;;
46080;SDS011;31821;51.880;-0.518;2022-09-02T16:31:17;2.65;;;1.90;;
46080;SDS011;31821;51.880;-0.518;2022-09-02T16:33:50;1.75;;;1.60;;
46080;SDS011;31821;51.880;-0.518;2022-09-02T16:36:18;2.70;;;1.80;;
46080;SDS011;31821;51.880;-0.518;2022-09-02T16:38:44;2.65;;;1.98;;
46080;SDS011;31821;51.880;-0.518;2022-09-02T16:44:11;2.05;;;1.70;;
46080;SDS011;31821;51.880;-0.518;2022-09-02T16:46:44;2.10;;;1.55;;
46080;SDS011;31821;51.880;-0.518;2022-09-02T16:49:11;2.40;;;1.80;;
46080;SDS011;31821;51.880;-0.518;2022-09-02T16:51:38;2.70;;;1.80;;
46080;SDS011;31821;51.880;-0.518;2022-09-02T16:54:05;2.75;;;1.80;;
46080;SDS011;31821;51.880;-0.518;2022-09-02T16:56:32;2.10;;;1.70;;
46080;SDS011;31821;51.880;-0.518;2022-09-02T16:58:59;2.28;;;1.70;;
46080;SDS011;31821;51.880;-0.518;2022-09-02T17:01:26;2.25;;;1.60;;
46080;SDS011;31821;51.880;-0.518;2022-09-02T17:03:53;2.67;;;1.90;;
46080;SDS011;31821;51.880;-0.518;2022-09-02T17:06:18;4.00;;;2.10;;
46080;SDS011;31821;51.880;-0.518;2022-09-02T17:08:44;3.35;;;2.30;;